Midland, Michigan
Current Conditions -  °F | °C
As of 5:34 AM on Sunday 21 Dec 2014 (Local Time) from KIKW Reporting Station
Overcast Overcast  
Wind Chill: 29°   Ceiling: 2300
Heat Index: 29°   Visibility: 7mi
Dew Point: 26°   Wind: 0mph
Humidity: 88%   Direction: NA
Pressure: 30.26"   Gusts: NA
Location:  43.62°N, 84.22°W
Report Text: KIKW 211034Z AUTO 00000KT 7SM OVC023 M02/M03 A3026 RMK AO2 T10181035
Loading
Personal Weather Stations






























Interactive Weather Map New forecast layout! Learn more

10-Day Weather Forecast

Advertisements
Track Severe Weather on mobile